sensor_id;sensor_type;location;lat;lon;timestamp;pressure;altitude;pressure_sealevel;temperature;humidity
47220;BME280;32961;51.936;4.788;2023-05-23T00:01:28;101976.06;;;13.46;100.00
47220;BME280;32961;51.936;4.788;2023-05-23T00:03:57;101974.88;;;13.39;100.00
47220;BME280;32961;51.936;4.788;2023-05-23T00:06:25;101980.06;;;13.42;100.00
47220;BME280;32961;51.936;4.788;2023-05-23T00:08:53;101989.56;;;13.47;100.00
47220;BME280;32961;51.936;4.788;2023-05-23T00:11:21;101987.84;;;13.46;100.00
47220;BME280;32961;51.936;4.788;2023-05-23T00:13:54;101993.56;;;13.43;100.00
47220;BME280;32961;51.936;4.788;2023-05-23T00:16:23;101993.16;;;13.27;100.00
47220;BME280;32961;51.936;4.788;2023-05-23T00:18:51;101992.03;;;13.29;100.00
47220;BME280;32961;51.936;4.788;2023-05-23T00:21:19;101995.47;;;13.31;100.00
47220;BME280;32961;51.936;4.788;2023-05-23T00:23:47;101998.59;;;13.38;100.00
47220;BME280;32961;51.936;4.788;2023-05-23T00:26:15;101999.94;;;13.32;100.00
47220;BME280;32961;51.936;4.788;2023-05-23T00:28:43;102001.06;;;13.30;100.00
47220;BME280;32961;51.936;4.788;2023-05-23T00:31:12;101993.16;;;13.27;100.00
47220;BME280;32961;51.936;4.788;2023-05-23T00:33:40;101984.50;;;13.22;100.00
47220;BME280;32961;51.936;4.788;2023-05-23T00:36:08;101998.50;;;13.28;100.00
47220;BME280;32961;51.936;4.788;2023-05-23T00:38:37;101997.50;;;13.29;100.00
47220;BME280;32961;51.936;4.788;2023-05-23T00:41:05;101987.44;;;13.30;100.00
47220;BME280;32961;51.936;4.788;2023-05-23T00:43:33;101994.03;;;13.27;100.00
47220;BME280;32961;51.936;4.788;2023-05-23T00:46:00;101997.75;;;13.26;100.00
47220;BME280;32961;51.936;4.788;2023-05-23T00:48:30;101994.47;;;13.32;100.00
47220;BME280;32961;51.936;4.788;2023-05-23T00:50:59;102004.78;;;13.40;100.00
47220;BME280;32961;51.936;4.788;2023-05-23T00:53:27;102017.41;;;13.41;100.00
47220;BME280;32961;51.936;4.788;2023-05-23T00:55:55;102011.84;;;13.43;100.00
47220;BME280;32961;51.936;4.788;2023-05-23T00:58:24;102013.97;;;13.39;100.00
47220;BME280;32961;51.936;4.788;2023-05-23T01:00:52;102018.00;;;13.45;100.00
47220;BME280;32961;51.936;4.788;2023-05-23T01:03:21;102005.09;;;13.47;100.00
47220;BME280;32961;51.936;4.788;2023-05-23T01:05:50;102017.41;;;13.41;100.00
47220;BME280;32961;51.936;4.788;2023-05-23T01:08:18;102013.47;;;13.34;100.00
47220;BME280;32961;51.936;4.788;2023-05-23T01:10:46;102010.16;;;13.30;100.00
47220;BME280;32961;51.936;4.788;2023-05-23T01:13:21;102015.25;;;13.24;100.00
47220;BME280;32961;51.936;4.788;2023-05-23T01:15:54;102017.84;;;13.25;100.00
47220;BME280;32961;51.936;4.788;2023-05-23T01:18:32;102013.88;;;13.29;100.00
47220;BME280;32961;51.936;4.788;2023-05-23T01:21:10;102016.06;;;13.36;100.00
47220;BME280;32961;51.936;4.788;2023-05-23T01:24:09;102022.78;;;13.31;100.00
47220;BME280;32961;51.936;4.788;2023-05-23T01:27:00;102024.34;;;13.24;100.00
47220;BME280;32961;51.936;4.788;2023-05-23T01:29:35;102022.66;;;13.33;100.00
47220;BME280;32961;51.936;4.788;2023-05-23T01:32:08;102014.66;;;13.41;100.00
47220;BME280;32961;51.936;4.788;2023-05-23T01:34:38;102010.84;;;13.44;100.00
47220;BME280;32961;51.936;4.788;2023-05-23T01:37:08;102002.06;;;13.40;100.00
47220;BME280;32961;51.936;4.788;2023-05-23T01:39:37;102013.47;;;13.34;100.00
47220;BME280;32961;51.936;4.788;2023-05-23T01:42:06;102012.44;;;13.35;100.00
47220;BME280;32961;51.936;4.788;2023-05-23T01:44:37;102017.31;;;13.31;100.00
47220;BME280;32961;51.936;4.788;2023-05-23T01:47:09;102020.88;;;13.43;100.00
47220;BME280;32961;51.936;4.788;2023-05-23T01:49:38;102016.75;;;13.49;100.00
47220;BME280;32961;51.936;4.788;2023-05-23T01:52:07;102021.94;;;13.52;100.00
47220;BME280;32961;51.936;4.788;2023-05-23T01:54:36;102015.06;;;13.58;100.00
47220;BME280;32961;51.936;4.788;2023-05-23T01:57:08;102023.25;;;13.58;100.00
47220;BME280;32961;51.936;4.788;2023-05-23T01:59:38;102023.41;;;13.56;100.00
47220;BME280;32961;51.936;4.788;2023-05-23T02:02:06;102017.50;;;13.61;100.00
47220;BME280;32961;51.936;4.788;2023-05-23T02:04:34;102026.91;;;13.68;100.00
47220;BME280;32961;51.936;4.788;2023-05-23T02:07:02;102022.13;;;13.60;100.00
47220;BME280;32961;51.936;4.788;2023-05-23T02:09:30;102017.06;;;13.56;100.00
47220;BME280;32961;51.936;4.788;2023-05-23T02:11:58;102032.50;;;13.67;100.00
47220;BME280;32961;51.936;4.788;2023-05-23T02:14:26;102025.59;;;13.62;100.00
47220;BME280;32961;51.936;4.788;2023-05-23T02:16:56;102023.31;;;13.68;100.00
47220;BME280;32961;51.936;4.788;2023-05-23T02:19:26;102031.22;;;13.71;100.00
47220;BME280;32961;51.936;4.788;2023-05-23T02:21:54;102020.38;;;13.59;100.00
47220;BME280;32961;51.936;4.788;2023-05-23T02:24:21;102011.16;;;13.51;100.00
47220;BME280;32961;51.936;4.788;2023-05-23T02:26:49;102022.97;;;13.61;100.00
47220;BME280;32961;51.936;4.788;2023-05-23T02:29:18;102014.19;;;13.57;100.00
47220;BME280;32961;51.936;4.788;2023-05-23T02:31:46;102030.31;;;13.60;99.60
47220;BME280;32961;51.936;4.788;2023-05-23T02:34:15;102034.38;;;13.66;99.03
47220;BME280;32961;51.936;4.788;2023-05-23T02:36:43;102038.66;;;13.59;99.40
47220;BME280;32961;51.936;4.788;2023-05-23T02:39:11;102040.50;;;13.58;98.85
47220;BME280;32961;51.936;4.788;2023-05-23T02:41:39;102056.63;;;13.61;99.00
47220;BME280;32961;51.936;4.788;2023-05-23T02:44:07;102058.06;;;13.66;98.86
47220;BME280;32961;51.936;4.788;2023-05-23T02:46:35;102066.28;;;13.66;99.21
47220;BME280;32961;51.936;4.788;2023-05-23T02:49:03;102056.47;;;13.63;97.97
47220;BME280;32961;51.936;4.788;2023-05-23T02:51:32;102057.81;;;13.69;97.92
47220;BME280;32961;51.936;4.788;2023-05-23T02:54:00;102064.13;;;13.69;97.36
47220;BME280;32961;51.936;4.788;2023-05-23T02:56:28;102058.91;;;13.56;97.49
47220;BME280;32961;51.936;4.788;2023-05-23T02:58:55;102059.44;;;13.50;96.33
47220;BME280;32961;51.936;4.788;2023-05-23T03:01:23;102057.97;;;13.46;96.15
47220;BME280;32961;51.936;4.788;2023-05-23T03:03:51;102058.75;;;13.37;96.63
47220;BME280;32961;51.936;4.788;2023-05-23T03:06:19;102063.41;;;13.46;96.69
47220;BME280;32961;51.936;4.788;2023-05-23T03:08:49;102072.88;;;13.42;96.30
47220;BME280;32961;51.936;4.788;2023-05-23T03:11:17;102062.22;;;13.39;95.46
47220;BME280;32961;51.936;4.788;2023-05-23T03:13:44;102073.38;;;13.36;95.35
47220;BME280;32961;51.936;4.788;2023-05-23T03:16:12;102065.34;;;13.34;95.21
47220;BME280;32961;51.936;4.788;2023-05-23T03:18:40;102065.94;;;13.38;94.78
47220;BME280;32961;51.936;4.788;2023-05-23T03:21:08;102053.25;;;13.15;95.28
47220;BME280;32961;51.936;4.788;2023-05-23T03:23:36;102069.38;;;13.19;95.54
47220;BME280;32961;51.936;4.788;2023-05-23T03:26:05;102067.91;;;13.14;95.40
47220;BME280;32961;51.936;4.788;2023-05-23T03:28:33;102071.38;;;13.16;95.49
47220;BME280;32961;51.936;4.788;2023-05-23T03:31:01;102071.50;;;13.15;95.46
47220;BME280;32961;51.936;4.788;2023-05-23T03:33:28;102072.88;;;13.09;95.12
47220;BME280;32961;51.936;4.788;2023-05-23T03:35:56;102068.56;;;13.07;95.50
47220;BME280;32961;51.936;4.788;2023-05-23T03:38:25;102070.56;;;13.05;95.27
47220;BME280;32961;51.936;4.788;2023-05-23T03:40:52;102069.78;;;13.14;95.03
47220;BME280;32961;51.936;4.788;2023-05-23T03:43:21;102069.91;;;13.12;94.84
47220;BME280;32961;51.936;4.788;2023-05-23T03:45:49;102076.09;;;13.14;94.95
47220;BME280;32961;51.936;4.788;2023-05-23T03:48:17;102077.09;;;13.13;94.76
47220;BME280;32961;51.936;4.788;2023-05-23T03:50:45;102083.59;;;13.01;95.06
47220;BME280;32961;51.936;4.788;2023-05-23T03:53:13;102087.19;;;13.02;94.98
47220;BME280;32961;51.936;4.788;2023-05-23T03:55:41;102089.44;;;12.96;95.78
47220;BME280;32961;51.936;4.788;2023-05-23T03:58:09;102087.78;;;13.05;95.68
47220;BME280;32961;51.936;4.788;2023-05-23T04:00:38;102087.72;;;12.95;95.44
47220;BME280;32961;51.936;4.788;2023-05-23T04:03:07;102100.34;;;12.96;95.15
47220;BME280;32961;51.936;4.788;2023-05-23T04:05:37;102098.66;;;12.84;94.82
47220;BME280;32961;51.936;4.788;2023-05-23T04:08:05;102102.34;;;12.94;94.63
47220;BME280;32961;51.936;4.788;2023-05-23T04:10:33;102107.56;;;12.97;92.99
47220;BME280;32961;51.936;4.788;2023-05-23T04:13:01;102105.34;;;12.80;92.65
47220;BME280;32961;51.936;4.788;2023-05-23T04:15:29;102108.38;;;12.65;92.72
47220;BME280;32961;51.936;4.788;2023-05-23T04:18:01;102109.09;;;12.67;92.44
47220;BME280;32961;51.936;4.788;2023-05-23T04:20:29;102115.56;;;12.55;92.62
47220;BME280;32961;51.936;4.788;2023-05-23T04:22:57;102123.25;;;12.61;92.05
47220;BME280;32961;51.936;4.788;2023-05-23T04:25:25;102120.78;;;12.58;92.26
47220;BME280;32961;51.936;4.788;2023-05-23T04:27:53;102122.03;;;12.65;92.48
47220;BME280;32961;51.936;4.788;2023-05-23T04:30:21;102103.41;;;12.59;92.12
47220;BME280;32961;51.936;4.788;2023-05-23T04:32:49;102121.00;;;12.78;92.81
47220;BME280;32961;51.936;4.788;2023-05-23T04:35:19;102126.56;;;12.76;92.39
47220;BME280;32961;51.936;4.788;2023-05-23T04:37:46;102121.63;;;12.81;91.92
47220;BME280;32961;51.936;4.788;2023-05-23T04:40:14;102137.38;;;12.66;91.97
47220;BME280;32961;51.936;4.788;2023-05-23T04:42:42;102132.56;;;12.59;90.84
47220;BME280;32961;51.936;4.788;2023-05-23T04:45:11;102141.59;;;12.48;89.53
47220;BME280;32961;51.936;4.788;2023-05-23T04:47:39;102144.94;;;12.51;89.94
47220;BME280;32961;51.936;4.788;2023-05-23T04:50:08;102147.03;;;12.59;88.76
47220;BME280;32961;51.936;4.788;2023-05-23T04:52:37;102146.81;;;12.62;88.67
47220;BME280;32961;51.936;4.788;2023-05-23T04:55:06;102155.00;;;12.51;87.66
47220;BME280;32961;51.936;4.788;2023-05-23T04:57:35;102162.06;;;12.31;87.03
47220;BME280;32961;51.936;4.788;2023-05-23T05:00:03;102168.38;;;12.31;87.24
47220;BME280;32961;51.936;4.788;2023-05-23T05:02:36;102170.09;;;12.21;87.40
47220;BME280;32961;51.936;4.788;2023-05-23T05:05:05;102163.66;;;12.22;86.17
47220;BME280;32961;51.936;4.788;2023-05-23T05:07:33;102179.53;;;12.28;86.59
47220;BME280;32961;51.936;4.788;2023-05-23T05:10:04;102175.81;;;12.07;85.04
47220;BME280;32961;51.936;4.788;2023-05-23T05:12:32;102189.16;;;12.10;85.79
47220;BME280;32961;51.936;4.788;2023-05-23T05:15:02;102176.53;;;12.09;86.18
47220;BME280;32961;51.936;4.788;2023-05-23T05:17:30;102172.06;;;11.96;88.03
47220;BME280;32961;51.936;4.788;2023-05-23T05:20:02;102188.81;;;12.03;89.24
47220;BME280;32961;51.936;4.788;2023-05-23T05:22:34;102188.19;;;12.22;89.30
47220;BME280;32961;51.936;4.788;2023-05-23T05:25:04;102197.25;;;12.23;87.90
47220;BME280;32961;51.936;4.788;2023-05-23T05:27:32;102191.53;;;12.37;87.55
47220;BME280;32961;51.936;4.788;2023-05-23T05:30:05;102148.56;;;12.18;86.87
47220;BME280;32961;51.936;4.788;2023-05-23T05:32:33;102187.44;;;12.54;86.82
47220;BME280;32961;51.936;4.788;2023-05-23T05:35:02;102200.31;;;12.75;86.61
47220;BME280;32961;51.936;4.788;2023-05-23T05:37:33;102197.38;;;12.78;85.08
47220;BME280;32961;51.936;4.788;2023-05-23T05:40:01;102199.31;;;12.87;84.75
47220;BME280;32961;51.936;4.788;2023-05-23T05:42:35;102192.53;;;12.81;83.40
47220;BME280;32961;51.936;4.788;2023-05-23T05:45:03;102198.09;;;12.80;81.12
47220;BME280;32961;51.936;4.788;2023-05-23T05:47:31;102210.50;;;12.61;80.74
47220;BME280;32961;51.936;4.788;2023-05-23T05:49:59;102217.09;;;12.47;81.00
47220;BME280;32961;51.936;4.788;2023-05-23T05:52:27;102220.78;;;12.46;81.97
47220;BME280;32961;51.936;4.788;2023-05-23T05:54:55;102220.66;;;12.48;83.59
47220;BME280;32961;51.936;4.788;2023-05-23T05:57:23;102231.47;;;12.61;83.68
47220;BME280;32961;51.936;4.788;2023-05-23T05:59:52;102236.91;;;12.61;83.86
47220;BME280;32961;51.936;4.788;2023-05-23T06:02:20;102235.78;;;12.63;81.16
47220;BME280;32961;51.936;4.788;2023-05-23T06:04:48;102227.50;;;12.54;81.23
47220;BME280;32961;51.936;4.788;2023-05-23T06:07:16;102232.31;;;12.50;81.48
47220;BME280;32961;51.936;4.788;2023-05-23T06:09:44;102227.72;;;12.50;81.81
47220;BME280;32961;51.936;4.788;2023-05-23T06:12:12;102239.13;;;12.33;81.83
47220;BME280;32961;51.936;4.788;2023-05-23T06:14:42;102241.22;;;12.41;82.20
47220;BME280;32961;51.936;4.788;2023-05-23T06:17:12;102244.56;;;12.44;82.18
47220;BME280;32961;51.936;4.788;2023-05-23T06:19:42;102232.81;;;12.44;82.76
47220;BME280;32961;51.936;4.788;2023-05-23T06:22:10;102245.06;;;12.27;84.55
47220;BME280;32961;51.936;4.788;2023-05-23T06:24:38;102250.78;;;12.35;85.12
47220;BME280;32961;51.936;4.788;2023-05-23T06:27:06;102243.34;;;12.48;84.88
47220;BME280;32961;51.936;4.788;2023-05-23T06:29:34;102243.22;;;12.39;85.86
47220;BME280;32961;51.936;4.788;2023-05-23T06:32:02;102243.56;;;12.23;86.22
47220;BME280;32961;51.936;4.788;2023-05-23T06:34:32;102263.78;;;12.31;86.75
47220;BME280;32961;51.936;4.788;2023-05-23T06:36:59;102242.22;;;12.40;86.23
47220;BME280;32961;51.936;4.788;2023-05-23T06:39:27;102255.47;;;12.44;86.58
47220;BME280;32961;51.936;4.788;2023-05-23T06:41:55;102258.31;;;12.31;87.14
47220;BME280;32961;51.936;4.788;2023-05-23T06:44:23;102252.75;;;12.33;87.37
47220;BME280;32961;51.936;4.788;2023-05-23T06:46:51;102236.75;;;12.28;87.28
47220;BME280;32961;51.936;4.788;2023-05-23T06:49:23;102252.03;;;12.42;87.96
47220;BME280;32961;51.936;4.788;2023-05-23T06:51:52;102249.66;;;12.38;88.06
47220;BME280;32961;51.936;4.788;2023-05-23T06:54:20;102246.03;;;12.14;88.27
47220;BME280;32961;51.936;4.788;2023-05-23T06:56:48;102255.09;;;12.26;88.63
47220;BME280;32961;51.936;4.788;2023-05-23T06:59:16;102259.91;;;12.23;88.41
47220;BME280;32961;51.936;4.788;2023-05-23T07:01:44;102269.72;;;12.25;88.91
47220;BME280;32961;51.936;4.788;2023-05-23T07:04:12;102267.97;;;12.24;88.60
47220;BME280;32961;51.936;4.788;2023-05-23T07:06:40;102266.97;;;12.25;87.75
47220;BME280;32961;51.936;4.788;2023-05-23T07:09:10;102255.31;;;12.23;88.06
47220;BME280;32961;51.936;4.788;2023-05-23T07:11:38;102269.72;;;12.36;88.00
47220;BME280;32961;51.936;4.788;2023-05-23T07:14:09;102263.56;;;12.46;86.99
47220;BME280;32961;51.936;4.788;2023-05-23T07:16:37;102271.13;;;12.54;85.82
47220;BME280;32961;51.936;4.788;2023-05-23T07:19:05;102264.19;;;12.61;84.05
47220;BME280;32961;51.936;4.788;2023-05-23T07:21:33;102276.97;;;12.72;83.82
47220;BME280;32961;51.936;4.788;2023-05-23T07:24:01;102281.66;;;13.04;78.92
47220;BME280;32961;51.936;4.788;2023-05-23T07:26:30;102272.81;;;13.34;74.94
47220;BME280;32961;51.936;4.788;2023-05-23T07:28:58;102284.94;;;13.53;73.05
47220;BME280;32961;51.936;4.788;2023-05-23T07:31:26;102284.75;;;13.66;72.79
47220;BME280;32961;51.936;4.788;2023-05-23T07:33:55;102271.06;;;13.77;74.33
47220;BME280;32961;51.936;4.788;2023-05-23T07:36:23;102289.75;;;13.93;71.49
47220;BME280;32961;51.936;4.788;2023-05-23T07:38:50;102274.28;;;13.82;71.18
47220;BME280;32961;51.936;4.788;2023-05-23T07:41:18;102286.44;;;13.89;73.69
47220;BME280;32961;51.936;4.788;2023-05-23T07:43:49;102277.88;;;13.83;73.16
47220;BME280;32961;51.936;4.788;2023-05-23T07:46:16;102282.78;;;13.68;74.93
47220;BME280;32961;51.936;4.788;2023-05-23T07:48:44;102282.31;;;13.51;76.44
47220;BME280;32961;51.936;4.788;2023-05-23T07:51:12;102296.91;;;13.40;75.03
47220;BME280;32961;51.936;4.788;2023-05-23T07:53:41;102300.72;;;13.38;74.58
47220;BME280;32961;51.936;4.788;2023-05-23T07:56:09;102296.75;;;13.42;75.50
47220;BME280;32961;51.936;4.788;2023-05-23T07:58:36;102299.31;;;13.55;74.32
47220;BME280;32961;51.936;4.788;2023-05-23T08:01:06;102302.41;;;13.61;74.06
47220;BME280;32961;51.936;4.788;2023-05-23T08:03:34;102306.09;;;13.72;71.92
47220;BME280;32961;51.936;4.788;2023-05-23T08:06:03;102305.28;;;13.60;72.92
47220;BME280;32961;51.936;4.788;2023-05-23T08:08:32;102304.34;;;13.71;72.47
47220;BME280;32961;51.936;4.788;2023-05-23T08:11:00;102302.38;;;13.73;69.41
47220;BME280;32961;51.936;4.788;2023-05-23T08:13:27;102308.09;;;13.70;69.69
47220;BME280;32961;51.936;4.788;2023-05-23T08:15:55;102310.41;;;13.86;68.19
47220;BME280;32961;51.936;4.788;2023-05-23T08:18:25;102312.25;;;13.85;68.11
47220;BME280;32961;51.936;4.788;2023-05-23T08:20:53;102300.38;;;13.75;66.71
47220;BME280;32961;51.936;4.788;2023-05-23T08:23:21;102303.28;;;13.94;68.04
47220;BME280;32961;51.936;4.788;2023-05-23T08:25:50;102305.75;;;13.98;67.10
47220;BME280;32961;51.936;4.788;2023-05-23T08:28:18;102316.63;;;14.09;67.05
47220;BME280;32961;51.936;4.788;2023-05-23T08:30:46;102313.56;;;14.23;65.62
47220;BME280;32961;51.936;4.788;2023-05-23T08:33:13;102316.25;;;14.35;65.94
47220;BME280;32961;51.936;4.788;2023-05-23T08:35:43;102319.16;;;14.43;63.47
47220;BME280;32961;51.936;4.788;2023-05-23T08:38:11;102319.78;;;14.25;64.53
47220;BME280;32961;51.936;4.788;2023-05-23T08:40:41;102312.34;;;14.16;64.55
47220;BME280;32961;51.936;4.788;2023-05-23T08:43:12;102315.16;;;14.05;64.77
47220;BME280;32961;51.936;4.788;2023-05-23T08:45:40;102327.13;;;13.92;65.55
47220;BME280;32961;51.936;4.788;2023-05-23T08:48:08;102316.13;;;13.83;66.12
47220;BME280;32961;51.936;4.788;2023-05-23T08:50:39;102309.53;;;14.06;65.50
47220;BME280;32961;51.936;4.788;2023-05-23T08:53:08;102321.97;;;14.32;64.08
47220;BME280;32961;51.936;4.788;2023-05-23T08:55:37;102316.50;;;14.32;64.48
47220;BME280;32961;51.936;4.788;2023-05-23T08:58:05;102315.50;;;14.33;63.41
47220;BME280;32961;51.936;4.788;2023-05-23T09:00:33;102324.56;;;14.33;62.93
47220;BME280;32961;51.936;4.788;2023-05-23T09:03:01;102317.56;;;14.40;62.71
47220;BME280;32961;51.936;4.788;2023-05-23T09:05:30;102320.38;;;14.50;61.25
47220;BME280;32961;51.936;4.788;2023-05-23T09:07:58;102324.00;;;14.72;60.92
47220;BME280;32961;51.936;4.788;2023-05-23T09:10:27;102336.69;;;14.61;60.24
47220;BME280;32961;51.936;4.788;2023-05-23T09:12:56;102339.13;;;14.55;60.83
47220;BME280;32961;51.936;4.788;2023-05-23T09:15:24;102342.59;;;14.57;60.63
47220;BME280;32961;51.936;4.788;2023-05-23T09:17:53;102345.03;;;14.81;61.04
47220;BME280;32961;51.936;4.788;2023-05-23T09:20:26;102352.09;;;15.05;59.09
47220;BME280;32961;51.936;4.788;2023-05-23T09:22:55;102332.56;;;15.19;58.08
47220;BME280;32961;51.936;4.788;2023-05-23T09:25:22;102346.25;;;15.19;59.42
47220;BME280;32961;51.936;4.788;2023-05-23T09:27:52;102340.44;;;15.13;57.64
47220;BME280;32961;51.936;4.788;2023-05-23T09:30:22;102354.59;;;15.18;57.72
47220;BME280;32961;51.936;4.788;2023-05-23T09:32:57;102355.06;;;15.23;56.63
47220;BME280;32961;51.936;4.788;2023-05-23T09:35:31;102337.50;;;15.35;57.32
47220;BME280;32961;51.936;4.788;2023-05-23T09:37:59;102347.84;;;15.22;57.29
47220;BME280;32961;51.936;4.788;2023-05-23T09:40:30;102347.00;;;15.31;58.39
47220;BME280;32961;51.936;4.788;2023-05-23T09:43:03;102339.75;;;15.20;59.12
47220;BME280;32961;51.936;4.788;2023-05-23T09:45:32;102346.00;;;15.32;60.36
47220;BME280;32961;51.936;4.788;2023-05-23T09:48:00;102341.88;;;15.57;57.80
47220;BME280;32961;51.936;4.788;2023-05-23T09:50:30;102342.47;;;15.51;58.93
47220;BME280;32961;51.936;4.788;2023-05-23T09:52:59;102343.19;;;15.13;59.85
47220;BME280;32961;51.936;4.788;2023-05-23T09:55:27;102344.88;;;15.04;59.98
47220;BME280;32961;51.936;4.788;2023-05-23T09:57:57;102350.44;;;15.23;59.81
47220;BME280;32961;51.936;4.788;2023-05-23T10:00:27;102346.81;;;15.64;56.90
47220;BME280;32961;51.936;4.788;2023-05-23T10:03:04;102347.72;;;16.13;57.42
47220;BME280;32961;51.936;4.788;2023-05-23T10:05:43;102353.94;;;16.15;54.43
47220;BME280;32961;51.936;4.788;2023-05-23T10:08:13;102348.47;;;16.06;54.10
47220;BME280;32961;51.936;4.788;2023-05-23T10:13:48;102351.22;;;16.06;55.28
47220;BME280;32961;51.936;4.788;2023-05-23T10:16:22;102350.06;;;16.08;55.07
47220;BME280;32961;51.936;4.788;2023-05-23T10:18:55;102349.88;;;16.29;51.41
47220;BME280;32961;51.936;4.788;2023-05-23T10:21:29;102354.38;;;16.30;52.67
47220;BME280;32961;51.936;4.788;2023-05-23T10:24:00;102359.69;;;16.51;53.11
47220;BME280;32961;51.936;4.788;2023-05-23T10:26:30;102361.16;;;16.36;53.81
47220;BME280;32961;51.936;4.788;2023-05-23T10:28:59;102356.38;;;16.48;53.60
47220;BME280;32961;51.936;4.788;2023-05-23T10:31:29;102359.59;;;16.14;54.71
47220;BME280;32961;51.936;4.788;2023-05-23T10:34:04;102364.56;;;15.79;54.52
47220;BME280;32961;51.936;4.788;2023-05-23T10:36:39;102371.06;;;15.78;55.86
47220;BME280;32961;51.936;4.788;2023-05-23T10:39:16;102378.13;;;15.71;55.73
47220;BME280;32961;51.936;4.788;2023-05-23T10:41:50;102371.91;;;15.79;55.73
47220;BME280;32961;51.936;4.788;2023-05-23T10:44:22;102355.44;;;15.59;57.21
47220;BME280;32961;51.936;4.788;2023-05-23T10:46:53;102370.66;;;15.83;57.85
47220;BME280;32961;51.936;4.788;2023-05-23T10:49:36;102363.47;;;15.92;56.63
47220;BME280;32961;51.936;4.788;2023-05-23T10:52:05;102362.59;;;16.01;55.60
47220;BME280;32961;51.936;4.788;2023-05-23T10:54:34;102363.97;;;15.56;55.97
47220;BME280;32961;51.936;4.788;2023-05-23T10:57:03;102353.69;;;15.48;55.57
47220;BME280;32961;51.936;4.788;2023-05-23T10:59:31;102365.56;;;15.68;56.96
47220;BME280;32961;51.936;4.788;2023-05-23T11:02:02;102362.38;;;15.73;56.67
47220;BME280;32961;51.936;4.788;2023-05-23T11:04:32;102363.25;;;15.64;55.82
47220;BME280;32961;51.936;4.788;2023-05-23T11:07:00;102364.69;;;15.68;54.90
47220;BME280;32961;51.936;4.788;2023-05-23T11:09:28;102362.81;;;15.59;55.63
47220;BME280;32961;51.936;4.788;2023-05-23T11:12:01;102367.13;;;15.51;55.04
47220;BME280;32961;51.936;4.788;2023-05-23T11:14:50;102366.38;;;15.49;55.68
47220;BME280;32961;51.936;4.788;2023-05-23T11:17:32;102371.63;;;15.62;55.43
47220;BME280;32961;51.936;4.788;2023-05-23T11:20:03;102369.47;;;15.76;57.00
47220;BME280;32961;51.936;4.788;2023-05-23T11:22:33;102369.31;;;15.77;56.31
47220;BME280;32961;51.936;4.788;2023-05-23T11:25:06;102376.56;;;15.78;56.85
47220;BME280;32961;51.936;4.788;2023-05-23T11:27:35;102361.28;;;16.05;56.03
47220;BME280;32961;51.936;4.788;2023-05-23T11:30:06;102368.50;;;16.16;56.10
47220;BME280;32961;51.936;4.788;2023-05-23T11:32:36;102365.63;;;16.37;54.50
47220;BME280;32961;51.936;4.788;2023-05-23T11:35:06;102385.97;;;16.34;53.58
47220;BME280;32961;51.936;4.788;2023-05-23T11:37:34;102384.69;;;16.09;54.53
47220;BME280;32961;51.936;4.788;2023-05-23T11:40:26;102389.88;;;16.32;55.08
47220;BME280;32961;51.936;4.788;2023-05-23T11:42:54;102388.53;;;16.75;52.36
47220;BME280;32961;51.936;4.788;2023-05-23T11:45:24;102376.53;;;16.96;50.18
47220;BME280;32961;51.936;4.788;2023-05-23T11:47:53;102375.81;;;16.74;51.93
47220;BME280;32961;51.936;4.788;2023-05-23T11:50:22;102386.25;;;16.61;53.70
47220;BME280;32961;51.936;4.788;2023-05-23T11:52:50;102397.47;;;16.77;53.14
47220;BME280;32961;51.936;4.788;2023-05-23T11:55:19;102380.56;;;16.92;52.19
47220;BME280;32961;51.936;4.788;2023-05-23T11:57:48;102385.88;;;17.03;50.31
47220;BME280;32961;51.936;4.788;2023-05-23T12:00:16;102378.09;;;16.89;50.23
47220;BME280;32961;51.936;4.788;2023-05-23T12:02:45;102380.75;;;16.71;48.63
47220;BME280;32961;51.936;4.788;2023-05-23T12:05:16;102382.03;;;16.76;50.63
47220;BME280;32961;51.936;4.788;2023-05-23T12:07:44;102376.34;;;17.07;47.89
47220;BME280;32961;51.936;4.788;2023-05-23T12:10:13;102399.63;;;16.83;47.23
47220;BME280;32961;51.936;4.788;2023-05-23T12:12:42;102388.53;;;16.95;46.84
47220;BME280;32961;51.936;4.788;2023-05-23T12:15:11;102389.25;;;16.77;48.25
47220;BME280;32961;51.936;4.788;2023-05-23T12:17:43;102386.47;;;16.97;49.34
47220;BME280;32961;51.936;4.788;2023-05-23T12:20:11;102395.44;;;16.89;50.14
47220;BME280;32961;51.936;4.788;2023-05-23T12:22:42;102398.19;;;16.89;49.48
47220;BME280;32961;51.936;4.788;2023-05-23T12:25:10;102381.50;;;17.10;50.30
47220;BME280;32961;51.936;4.788;2023-05-23T12:27:39;102403.81;;;16.88;50.96
47220;BME280;32961;51.936;4.788;2023-05-23T12:30:13;102400.69;;;16.63;50.90
47220;BME280;32961;51.936;4.788;2023-05-23T12:32:43;102390.91;;;16.41;50.91
47220;BME280;32961;51.936;4.788;2023-05-23T12:35:13;102399.25;;;16.59;49.82
47220;BME280;32961;51.936;4.788;2023-05-23T12:37:43;102389.81;;;16.71;48.50
47220;BME280;32961;51.936;4.788;2023-05-23T12:40:13;102393.63;;;16.70;47.87
47220;BME280;32961;51.936;4.788;2023-05-23T12:42:51;102388.25;;;16.68;47.22
47220;BME280;32961;51.936;4.788;2023-05-23T12:45:21;102376.66;;;16.84;48.10
47220;BME280;32961;51.936;4.788;2023-05-23T12:47:49;102390.28;;;16.76;47.55
47220;BME280;32961;51.936;4.788;2023-05-23T12:50:19;102387.78;;;16.83;48.51
47220;BME280;32961;51.936;4.788;2023-05-23T12:52:49;102372.91;;;16.85;49.59
47220;BME280;32961;51.936;4.788;2023-05-23T12:55:18;102381.28;;;16.94;48.93
47220;BME280;32961;51.936;4.788;2023-05-23T12:57:46;102386.81;;;17.31;47.77
47220;BME280;32961;51.936;4.788;2023-05-23T13:00:15;102391.13;;;17.34;47.37
47220;BME280;32961;51.936;4.788;2023-05-23T13:02:43;102382.28;;;17.03;48.14